sensor_id;sensor_type;location;lat;lon;timestamp;P1;durP1;ratioP1;P2;durP2;ratioP2
5277;SDS011;2662;51.194;6.614;2022-09-30T00:01:27;7.40;;;5.87;;
5277;SDS011;2662;51.194;6.614;2022-09-30T00:03:55;11.83;;;6.07;;
5277;SDS011;2662;51.194;6.614;2022-09-30T00:06:23;7.30;;;5.53;;
5277;SDS011;2662;51.194;6.614;2022-09-30T00:08:50;9.50;;;5.40;;
5277;SDS011;2662;51.194;6.614;2022-09-30T00:11:18;7.83;;;5.87;;
5277;SDS011;2662;51.194;6.614;2022-09-30T00:13:47;9.80;;;6.57;;
5277;SDS011;2662;51.194;6.614;2022-09-30T00:16:15;12.20;;;6.83;;
5277;SDS011;2662;51.194;6.614;2022-09-30T00:18:43;10.73;;;5.70;;
5277;SDS011;2662;51.194;6.614;2022-09-30T00:21:12;10.17;;;6.10;;
5277;SDS011;2662;51.194;6.614;2022-09-30T00:23:40;8.87;;;6.83;;
5277;SDS011;2662;51.194;6.614;2022-09-30T00:26:09;8.53;;;6.17;;
5277;SDS011;2662;51.194;6.614;2022-09-30T00:28:37;17.73;;;6.80;;
5277;SDS011;2662;51.194;6.614;2022-09-30T00:31:05;15.43;;;7.47;;
5277;SDS011;2662;51.194;6.614;2022-09-30T00:33:34;14.40;;;7.73;;
5277;SDS011;2662;51.194;6.614;2022-09-30T00:36:00;11.60;;;7.20;;
5277;SDS011;2662;51.194;6.614;2022-09-30T00:38:29;8.50;;;6.33;;
5277;SDS011;2662;51.194;6.614;2022-09-30T00:40:55;11.80;;;6.87;;
5277;SDS011;2662;51.194;6.614;2022-09-30T00:43:37;13.73;;;6.33;;
5277;SDS011;2662;51.194;6.614;2022-09-30T00:46:08;18.13;;;7.27;;
5277;SDS011;2662;51.194;6.614;2022-09-30T00:48:44;18.63;;;7.03;;
5277;SDS011;2662;51.194;6.614;2022-09-30T00:51:17;17.53;;;6.90;;
5277;SDS011;2662;51.194;6.614;2022-09-30T00:53:52;11.83;;;6.23;;
5277;SDS011;2662;51.194;6.614;2022-09-30T00:56:22;14.37;;;7.10;;
5277;SDS011;2662;51.194;6.614;2022-09-30T00:58:51;8.23;;;6.53;;
5277;SDS011;2662;51.194;6.614;2022-09-30T01:01:21;13.93;;;7.13;;
5277;SDS011;2662;51.194;6.614;2022-09-30T01:03:49;11.17;;;6.83;;
5277;SDS011;2662;51.194;6.614;2022-09-30T01:06:22;12.67;;;7.17;;
5277;SDS011;2662;51.194;6.614;2022-09-30T01:08:49;17.67;;;6.90;;
5277;SDS011;2662;51.194;6.614;2022-09-30T01:11:19;9.33;;;5.90;;
5277;SDS011;2662;51.194;6.614;2022-09-30T01:13:47;16.63;;;6.83;;
5277;SDS011;2662;51.194;6.614;2022-09-30T01:19:26;11.00;;;6.30;;
5277;SDS011;2662;51.194;6.614;2022-09-30T01:22:15;9.77;;;6.37;;
5277;SDS011;2662;51.194;6.614;2022-09-30T01:24:53;9.80;;;6.40;;
5277;SDS011;2662;51.194;6.614;2022-09-30T01:30:40;11.63;;;6.67;;
5277;SDS011;2662;51.194;6.614;2022-09-30T01:33:21;8.93;;;6.40;;
5277;SDS011;2662;51.194;6.614;2022-09-30T01:36:05;9.50;;;6.10;;
5277;SDS011;2662;51.194;6.614;2022-09-30T01:38:45;14.20;;;6.67;;
5277;SDS011;2662;51.194;6.614;2022-09-30T01:41:19;8.13;;;5.93;;
5277;SDS011;2662;51.194;6.614;2022-09-30T01:43:52;13.20;;;6.50;;
5277;SDS011;2662;51.194;6.614;2022-09-30T01:46:29;8.43;;;6.20;;
5277;SDS011;2662;51.194;6.614;2022-09-30T01:49:03;12.03;;;6.50;;
5277;SDS011;2662;51.194;6.614;2022-09-30T01:51:38;11.60;;;6.60;;
5277;SDS011;2662;51.194;6.614;2022-09-30T01:54:12;9.00;;;5.60;;
5277;SDS011;2662;51.194;6.614;2022-09-30T01:56:44;13.57;;;5.53;;
5277;SDS011;2662;51.194;6.614;2022-09-30T01:59:14;6.97;;;5.30;;
5277;SDS011;2662;51.194;6.614;2022-09-30T02:01:46;10.40;;;6.83;;
5277;SDS011;2662;51.194;6.614;2022-09-30T02:04:19;9.20;;;6.00;;
5277;SDS011;2662;51.194;6.614;2022-09-30T02:06:51;11.73;;;6.03;;
5277;SDS011;2662;51.194;6.614;2022-09-30T02:09:22;12.00;;;6.50;;
5277;SDS011;2662;51.194;6.614;2022-09-30T02:11:53;9.70;;;6.90;;
5277;SDS011;2662;51.194;6.614;2022-09-30T02:14:22;11.33;;;6.13;;
5277;SDS011;2662;51.194;6.614;2022-09-30T02:16:56;13.07;;;6.50;;
5277;SDS011;2662;51.194;6.614;2022-09-30T02:19:28;9.60;;;6.40;;
5277;SDS011;2662;51.194;6.614;2022-09-30T02:21:59;12.20;;;6.20;;
5277;SDS011;2662;51.194;6.614;2022-09-30T02:24:30;11.60;;;6.90;;
5277;SDS011;2662;51.194;6.614;2022-09-30T02:27:01;9.07;;;6.90;;
5277;SDS011;2662;51.194;6.614;2022-09-30T02:29:32;8.33;;;6.03;;
5277;SDS011;2662;51.194;6.614;2022-09-30T02:32:06;13.30;;;7.90;;
5277;SDS011;2662;51.194;6.614;2022-09-30T02:34:37;13.60;;;6.97;;
5277;SDS011;2662;51.194;6.614;2022-09-30T02:37:06;11.77;;;7.10;;
5277;SDS011;2662;51.194;6.614;2022-09-30T02:39:38;11.03;;;6.90;;
5277;SDS011;2662;51.194;6.614;2022-09-30T02:42:10;10.67;;;6.67;;
5277;SDS011;2662;51.194;6.614;2022-09-30T02:44:42;12.03;;;6.90;;
5277;SDS011;2662;51.194;6.614;2022-09-30T02:47:11;17.70;;;6.80;;
5277;SDS011;2662;51.194;6.614;2022-09-30T02:49:45;12.60;;;7.03;;
5277;SDS011;2662;51.194;6.614;2022-09-30T02:52:19;11.23;;;6.60;;
5277;SDS011;2662;51.194;6.614;2022-09-30T02:54:51;10.93;;;6.50;;
5277;SDS011;2662;51.194;6.614;2022-09-30T02:57:28;17.07;;;6.50;;
5277;SDS011;2662;51.194;6.614;2022-09-30T03:00:00;11.03;;;7.17;;
5277;SDS011;2662;51.194;6.614;2022-09-30T03:02:28;10.70;;;7.00;;
5277;SDS011;2662;51.194;6.614;2022-09-30T03:04:55;13.37;;;7.00;;
5277;SDS011;2662;51.194;6.614;2022-09-30T03:07:22;10.33;;;7.17;;
5277;SDS011;2662;51.194;6.614;2022-09-30T03:09:49;14.53;;;7.50;;
5277;SDS011;2662;51.194;6.614;2022-09-30T03:12:23;10.97;;;7.80;;
5277;SDS011;2662;51.194;6.614;2022-09-30T03:15:15;9.03;;;6.70;;
5277;SDS011;2662;51.194;6.614;2022-09-30T03:18:05;10.90;;;7.00;;
5277;SDS011;2662;51.194;6.614;2022-09-30T03:20:50;10.83;;;6.90;;
5277;SDS011;2662;51.194;6.614;2022-09-30T03:23:35;12.27;;;6.20;;
5277;SDS011;2662;51.194;6.614;2022-09-30T03:26:17;13.33;;;7.27;;
5277;SDS011;2662;51.194;6.614;2022-09-30T03:28:53;15.80;;;6.50;;
5277;SDS011;2662;51.194;6.614;2022-09-30T03:31:32;17.90;;;7.30;;
5277;SDS011;2662;51.194;6.614;2022-09-30T03:34:09;11.33;;;6.77;;
5277;SDS011;2662;51.194;6.614;2022-09-30T03:36:46;17.20;;;6.83;;
5277;SDS011;2662;51.194;6.614;2022-09-30T03:39:20;11.60;;;6.70;;
5277;SDS011;2662;51.194;6.614;2022-09-30T03:41:51;8.37;;;6.77;;
5277;SDS011;2662;51.194;6.614;2022-09-30T03:44:24;11.23;;;7.20;;
5277;SDS011;2662;51.194;6.614;2022-09-30T03:46:58;10.30;;;6.63;;
5277;SDS011;2662;51.194;6.614;2022-09-30T03:49:31;7.60;;;5.97;;
5277;SDS011;2662;51.194;6.614;2022-09-30T03:52:03;10.50;;;6.40;;
5277;SDS011;2662;51.194;6.614;2022-09-30T03:54:31;11.77;;;6.20;;
5277;SDS011;2662;51.194;6.614;2022-09-30T03:57:00;10.30;;;6.47;;
5277;SDS011;2662;51.194;6.614;2022-09-30T03:59:29;10.20;;;6.80;;
5277;SDS011;2662;51.194;6.614;2022-09-30T04:01:56;14.73;;;6.80;;
5277;SDS011;2662;51.194;6.614;2022-09-30T04:04:22;12.80;;;6.40;;
5277;SDS011;2662;51.194;6.614;2022-09-30T04:06:50;11.43;;;6.33;;
5277;SDS011;2662;51.194;6.614;2022-09-30T04:09:17;10.07;;;6.93;;
5277;SDS011;2662;51.194;6.614;2022-09-30T04:11:44;10.90;;;6.40;;
5277;SDS011;2662;51.194;6.614;2022-09-30T04:14:11;15.40;;;6.63;;
5277;SDS011;2662;51.194;6.614;2022-09-30T04:16:37;9.03;;;6.40;;
5277;SDS011;2662;51.194;6.614;2022-09-30T04:19:04;9.97;;;5.90;;
5277;SDS011;2662;51.194;6.614;2022-09-30T04:21:31;8.97;;;5.90;;
5277;SDS011;2662;51.194;6.614;2022-09-30T04:23:59;8.60;;;6.50;;
5277;SDS011;2662;51.194;6.614;2022-09-30T04:26:26;11.40;;;6.23;;
5277;SDS011;2662;51.194;6.614;2022-09-30T04:28:53;9.17;;;6.27;;
5277;SDS011;2662;51.194;6.614;2022-09-30T04:31:22;9.30;;;6.10;;
5277;SDS011;2662;51.194;6.614;2022-09-30T04:33:49;10.87;;;6.17;;
5277;SDS011;2662;51.194;6.614;2022-09-30T04:36:16;11.23;;;6.83;;
5277;SDS011;2662;51.194;6.614;2022-09-30T04:38:43;19.70;;;6.53;;
5277;SDS011;2662;51.194;6.614;2022-09-30T04:41:12;11.83;;;6.60;;
5277;SDS011;2662;51.194;6.614;2022-09-30T04:43:40;14.00;;;6.07;;
5277;SDS011;2662;51.194;6.614;2022-09-30T04:46:09;9.63;;;5.50;;
5277;SDS011;2662;51.194;6.614;2022-09-30T04:48:36;10.23;;;5.27;;
5277;SDS011;2662;51.194;6.614;2022-09-30T04:51:03;14.50;;;6.40;;
5277;SDS011;2662;51.194;6.614;2022-09-30T04:53:30;13.13;;;5.70;;
5277;SDS011;2662;51.194;6.614;2022-09-30T04:55:57;10.40;;;6.00;;
5277;SDS011;2662;51.194;6.614;2022-09-30T04:58:25;13.10;;;5.30;;
5277;SDS011;2662;51.194;6.614;2022-09-30T05:00:58;9.77;;;6.00;;
5277;SDS011;2662;51.194;6.614;2022-09-30T05:03:25;18.53;;;6.80;;
5277;SDS011;2662;51.194;6.614;2022-09-30T05:05:52;7.90;;;5.33;;
5277;SDS011;2662;51.194;6.614;2022-09-30T05:08:19;11.47;;;5.87;;
5277;SDS011;2662;51.194;6.614;2022-09-30T05:10:51;8.27;;;6.07;;
5277;SDS011;2662;51.194;6.614;2022-09-30T05:13:21;7.93;;;5.57;;
5277;SDS011;2662;51.194;6.614;2022-09-30T05:15:49;7.60;;;5.47;;
5277;SDS011;2662;51.194;6.614;2022-09-30T05:18:16;9.97;;;5.83;;
5277;SDS011;2662;51.194;6.614;2022-09-30T05:20:43;9.00;;;5.90;;
5277;SDS011;2662;51.194;6.614;2022-09-30T05:23:10;8.60;;;5.60;;
5277;SDS011;2662;51.194;6.614;2022-09-30T05:25:37;8.83;;;5.50;;
5277;SDS011;2662;51.194;6.614;2022-09-30T05:28:03;6.83;;;5.17;;
5277;SDS011;2662;51.194;6.614;2022-09-30T05:30:30;8.03;;;5.10;;
5277;SDS011;2662;51.194;6.614;2022-09-30T05:32:58;8.10;;;5.33;;
5277;SDS011;2662;51.194;6.614;2022-09-30T05:35:25;7.37;;;5.20;;
5277;SDS011;2662;51.194;6.614;2022-09-30T05:37:52;9.83;;;5.93;;
5277;SDS011;2662;51.194;6.614;2022-09-30T05:40:18;9.23;;;5.67;;
5277;SDS011;2662;51.194;6.614;2022-09-30T05:42:45;20.13;;;5.07;;
5277;SDS011;2662;51.194;6.614;2022-09-30T05:45:12;8.77;;;5.60;;
5277;SDS011;2662;51.194;6.614;2022-09-30T05:47:38;9.60;;;5.13;;
5277;SDS011;2662;51.194;6.614;2022-09-30T05:50:07;11.43;;;5.67;;
5277;SDS011;2662;51.194;6.614;2022-09-30T05:52:34;7.90;;;5.80;;
5277;SDS011;2662;51.194;6.614;2022-09-30T05:55:01;8.87;;;5.80;;
5277;SDS011;2662;51.194;6.614;2022-09-30T05:57:28;11.13;;;6.40;;
5277;SDS011;2662;51.194;6.614;2022-09-30T05:59:55;8.67;;;5.73;;
5277;SDS011;2662;51.194;6.614;2022-09-30T06:02:22;8.17;;;6.10;;
5277;SDS011;2662;51.194;6.614;2022-09-30T06:04:49;6.67;;;5.70;;
5277;SDS011;2662;51.194;6.614;2022-09-30T06:07:17;15.43;;;6.10;;
5277;SDS011;2662;51.194;6.614;2022-09-30T06:09:44;10.40;;;6.23;;
5277;SDS011;2662;51.194;6.614;2022-09-30T06:12:11;6.83;;;5.10;;
5277;SDS011;2662;51.194;6.614;2022-09-30T06:14:38;8.87;;;6.40;;
5277;SDS011;2662;51.194;6.614;2022-09-30T06:17:05;10.97;;;5.40;;
5277;SDS011;2662;51.194;6.614;2022-09-30T06:19:31;12.67;;;6.40;;
5277;SDS011;2662;51.194;6.614;2022-09-30T06:21:58;9.60;;;6.00;;
5277;SDS011;2662;51.194;6.614;2022-09-30T06:24:26;9.20;;;5.00;;
5277;SDS011;2662;51.194;6.614;2022-09-30T06:26:53;11.33;;;5.63;;
5277;SDS011;2662;51.194;6.614;2022-09-30T06:29:20;10.70;;;5.23;;
5277;SDS011;2662;51.194;6.614;2022-09-30T06:31:46;9.43;;;4.97;;
5277;SDS011;2662;51.194;6.614;2022-09-30T06:34:13;7.10;;;4.47;;
5277;SDS011;2662;51.194;6.614;2022-09-30T06:36:40;7.57;;;4.10;;
5277;SDS011;2662;51.194;6.614;2022-09-30T06:39:07;5.73;;;4.33;;
5277;SDS011;2662;51.194;6.614;2022-09-30T06:41:35;5.50;;;4.23;;
5277;SDS011;2662;51.194;6.614;2022-09-30T06:44:03;6.47;;;3.90;;
5277;SDS011;2662;51.194;6.614;2022-09-30T06:46:30;5.93;;;3.87;;
5277;SDS011;2662;51.194;6.614;2022-09-30T06:48:58;8.87;;;3.73;;
5277;SDS011;2662;51.194;6.614;2022-09-30T06:51:24;7.80;;;3.90;;
5277;SDS011;2662;51.194;6.614;2022-09-30T06:53:53;6.40;;;4.00;;
5277;SDS011;2662;51.194;6.614;2022-09-30T06:56:20;6.87;;;4.53;;
5277;SDS011;2662;51.194;6.614;2022-09-30T06:58:48;5.80;;;3.50;;
5277;SDS011;2662;51.194;6.614;2022-09-30T07:01:15;12.33;;;4.50;;
5277;SDS011;2662;51.194;6.614;2022-09-30T07:03:44;7.37;;;4.13;;
5277;SDS011;2662;51.194;6.614;2022-09-30T07:06:12;11.60;;;4.13;;
5277;SDS011;2662;51.194;6.614;2022-09-30T07:08:40;9.40;;;3.97;;
5277;SDS011;2662;51.194;6.614;2022-09-30T07:11:07;8.93;;;4.10;;
5277;SDS011;2662;51.194;6.614;2022-09-30T07:13:38;4.20;;;3.80;;
5277;SDS011;2662;51.194;6.614;2022-09-30T07:16:08;6.33;;;4.47;;
5277;SDS011;2662;51.194;6.614;2022-09-30T07:18:36;8.17;;;4.30;;
5277;SDS011;2662;51.194;6.614;2022-09-30T07:21:03;13.20;;;4.97;;
5277;SDS011;2662;51.194;6.614;2022-09-30T07:23:30;8.20;;;5.20;;
5277;SDS011;2662;51.194;6.614;2022-09-30T07:25:58;9.20;;;4.70;;
5277;SDS011;2662;51.194;6.614;2022-09-30T07:28:29;10.63;;;5.30;;
5277;SDS011;2662;51.194;6.614;2022-09-30T07:30:58;8.70;;;4.40;;
5277;SDS011;2662;51.194;6.614;2022-09-30T07:33:28;10.53;;;4.30;;
5277;SDS011;2662;51.194;6.614;2022-09-30T07:35:57;9.30;;;4.50;;
5277;SDS011;2662;51.194;6.614;2022-09-30T07:38:26;13.30;;;4.50;;
5277;SDS011;2662;51.194;6.614;2022-09-30T07:40:55;9.17;;;4.90;;
5277;SDS011;2662;51.194;6.614;2022-09-30T07:43:23;11.87;;;4.87;;
5277;SDS011;2662;51.194;6.614;2022-09-30T07:45:52;12.90;;;4.30;;
5277;SDS011;2662;51.194;6.614;2022-09-30T07:48:20;10.87;;;4.73;;
5277;SDS011;2662;51.194;6.614;2022-09-30T07:51:05;14.20;;;4.83;;
5277;SDS011;2662;51.194;6.614;2022-09-30T07:53:34;7.20;;;4.73;;
5277;SDS011;2662;51.194;6.614;2022-09-30T07:56:01;12.60;;;4.73;;
5277;SDS011;2662;51.194;6.614;2022-09-30T07:58:28;8.03;;;4.50;;
5277;SDS011;2662;51.194;6.614;2022-09-30T08:00:55;10.30;;;5.00;;
5277;SDS011;2662;51.194;6.614;2022-09-30T08:03:22;13.80;;;4.90;;
5277;SDS011;2662;51.194;6.614;2022-09-30T08:05:48;6.17;;;4.73;;
5277;SDS011;2662;51.194;6.614;2022-09-30T08:08:16;12.70;;;5.27;;
5277;SDS011;2662;51.194;6.614;2022-09-30T08:10:44;7.23;;;5.27;;
5277;SDS011;2662;51.194;6.614;2022-09-30T08:13:10;8.53;;;5.00;;
5277;SDS011;2662;51.194;6.614;2022-09-30T08:15:38;8.60;;;5.40;;
5277;SDS011;2662;51.194;6.614;2022-09-30T08:18:05;13.83;;;6.10;;
5277;SDS011;2662;51.194;6.614;2022-09-30T08:20:32;12.23;;;7.33;;
5277;SDS011;2662;51.194;6.614;2022-09-30T08:22:58;12.93;;;6.70;;
5277;SDS011;2662;51.194;6.614;2022-09-30T08:25:26;9.40;;;6.50;;
5277;SDS011;2662;51.194;6.614;2022-09-30T08:27:53;10.70;;;7.00;;
5277;SDS011;2662;51.194;6.614;2022-09-30T08:30:20;13.50;;;7.10;;
5277;SDS011;2662;51.194;6.614;2022-09-30T08:32:47;17.30;;;7.47;;
5277;SDS011;2662;51.194;6.614;2022-09-30T08:35:13;10.80;;;7.77;;
5277;SDS011;2662;51.194;6.614;2022-09-30T08:37:40;11.33;;;7.00;;
5277;SDS011;2662;51.194;6.614;2022-09-30T08:40:08;17.47;;;7.47;;
5277;SDS011;2662;51.194;6.614;2022-09-30T08:42:46;12.10;;;6.87;;
5277;SDS011;2662;51.194;6.614;2022-09-30T08:45:29;13.20;;;7.30;;
5277;SDS011;2662;51.194;6.614;2022-09-30T08:48:05;12.77;;;7.27;;
5277;SDS011;2662;51.194;6.614;2022-09-30T08:50:48;12.90;;;7.20;;
5277;SDS011;2662;51.194;6.614;2022-09-30T08:53:25;12.30;;;6.40;;
5277;SDS011;2662;51.194;6.614;2022-09-30T08:55:56;13.03;;;7.10;;
5277;SDS011;2662;51.194;6.614;2022-09-30T08:58:29;12.33;;;7.20;;
5277;SDS011;2662;51.194;6.614;2022-09-30T09:00:58;11.50;;;7.40;;
5277;SDS011;2662;51.194;6.614;2022-09-30T09:03:30;10.57;;;7.40;;
5277;SDS011;2662;51.194;6.614;2022-09-30T09:06:02;11.00;;;7.63;;
5277;SDS011;2662;51.194;6.614;2022-09-30T09:08:45;15.70;;;7.60;;
5277;SDS011;2662;51.194;6.614;2022-09-30T09:11:20;13.07;;;8.07;;
5277;SDS011;2662;51.194;6.614;2022-09-30T09:13:56;14.07;;;8.17;;
5277;SDS011;2662;51.194;6.614;2022-09-30T09:16:28;15.13;;;7.63;;
5277;SDS011;2662;51.194;6.614;2022-09-30T09:19:01;11.07;;;7.60;;
5277;SDS011;2662;51.194;6.614;2022-09-30T09:21:37;15.70;;;8.40;;
5277;SDS011;2662;51.194;6.614;2022-09-30T09:24:13;18.07;;;8.93;;
5277;SDS011;2662;51.194;6.614;2022-09-30T09:26:43;14.00;;;7.80;;
5277;SDS011;2662;51.194;6.614;2022-09-30T09:29:17;15.03;;;8.70;;
5277;SDS011;2662;51.194;6.614;2022-09-30T09:31:52;18.63;;;7.83;;
5277;SDS011;2662;51.194;6.614;2022-09-30T09:34:19;17.13;;;9.17;;
5277;SDS011;2662;51.194;6.614;2022-09-30T09:36:52;10.60;;;8.67;;
5277;SDS011;2662;51.194;6.614;2022-09-30T09:39:38;18.23;;;9.03;;
5277;SDS011;2662;51.194;6.614;2022-09-30T09:42:30;12.53;;;9.50;;
5277;SDS011;2662;51.194;6.614;2022-09-30T09:45:20;10.67;;;9.00;;
5277;SDS011;2662;51.194;6.614;2022-09-30T09:47:54;15.87;;;9.17;;
5277;SDS011;2662;51.194;6.614;2022-09-30T09:50:25;14.77;;;9.23;;
5277;SDS011;2662;51.194;6.614;2022-09-30T09:53:13;14.27;;;9.60;;
5277;SDS011;2662;51.194;6.614;2022-09-30T09:55:56;15.40;;;10.27;;
5277;SDS011;2662;51.194;6.614;2022-09-30T09:58:24;20.07;;;10.13;;
5277;SDS011;2662;51.194;6.614;2022-09-30T10:00:53;16.57;;;9.63;;
5277;SDS011;2662;51.194;6.614;2022-09-30T10:04:05;15.60;;;9.43;;
5277;SDS011;2662;51.194;6.614;2022-09-30T10:06:45;17.80;;;10.00;;
5277;SDS011;2662;51.194;6.614;2022-09-30T10:09:20;14.90;;;10.17;;
5277;SDS011;2662;51.194;6.614;2022-09-30T10:11:49;12.20;;;9.10;;
5277;SDS011;2662;51.194;6.614;2022-09-30T10:14:16;14.73;;;9.50;;
5277;SDS011;2662;51.194;6.614;2022-09-30T10:16:48;17.23;;;10.03;;
5277;SDS011;2662;51.194;6.614;2022-09-30T10:19:18;15.53;;;10.10;;
5277;SDS011;2662;51.194;6.614;2022-09-30T10:21:47;15.57;;;9.90;;
5277;SDS011;2662;51.194;6.614;2022-09-30T10:24:18;18.47;;;11.00;;
5277;SDS011;2662;51.194;6.614;2022-09-30T10:26:51;13.20;;;9.90;;
5277;SDS011;2662;51.194;6.614;2022-09-30T10:29:25;18.60;;;10.60;;
5277;SDS011;2662;51.194;6.614;2022-09-30T10:31:55;21.20;;;10.70;;
5277;SDS011;2662;51.194;6.614;2022-09-30T10:34:23;15.23;;;11.17;;
5277;SDS011;2662;51.194;6.614;2022-09-30T10:36:53;24.73;;;10.80;;
5277;SDS011;2662;51.194;6.614;2022-09-30T10:39:22;22.33;;;11.47;;
5277;SDS011;2662;51.194;6.614;2022-09-30T10:41:50;16.73;;;10.70;;
5277;SDS011;2662;51.194;6.614;2022-09-30T10:44:26;16.17;;;10.87;;
5277;SDS011;2662;51.194;6.614;2022-09-30T10:46:58;14.03;;;10.20;;
5277;SDS011;2662;51.194;6.614;2022-09-30T10:49:28;16.40;;;10.63;;
5277;SDS011;2662;51.194;6.614;2022-09-30T10:51:58;15.17;;;10.20;;
5277;SDS011;2662;51.194;6.614;2022-09-30T10:54:33;19.07;;;9.37;;
5277;SDS011;2662;51.194;6.614;2022-09-30T10:57:11;16.63;;;9.33;;
5277;SDS011;2662;51.194;6.614;2022-09-30T10:59:40;12.90;;;9.10;;
5277;SDS011;2662;51.194;6.614;2022-09-30T11:02:21;20.13;;;10.77;;
5277;SDS011;2662;51.194;6.614;2022-09-30T11:04:54;18.73;;;9.80;;
5277;SDS011;2662;51.194;6.614;2022-09-30T11:07:28;18.93;;;10.67;;
5277;SDS011;2662;51.194;6.614;2022-09-30T11:09:59;10.73;;;8.67;;
5277;SDS011;2662;51.194;6.614;2022-09-30T11:12:34;13.00;;;9.50;;
5277;SDS011;2662;51.194;6.614;2022-09-30T11:15:10;13.93;;;10.70;;
5277;SDS011;2662;51.194;6.614;2022-09-30T11:17:43;14.93;;;10.67;;
5277;SDS011;2662;51.194;6.614;2022-09-30T11:20:17;15.13;;;9.73;;
5277;SDS011;2662;51.194;6.614;2022-09-30T11:22:48;13.20;;;9.93;;
5277;SDS011;2662;51.194;6.614;2022-09-30T11:25:23;15.70;;;9.70;;
5277;SDS011;2662;51.194;6.614;2022-09-30T11:28:02;18.23;;;9.53;;
5277;SDS011;2662;51.194;6.614;2022-09-30T11:30:53;17.93;;;8.50;;
5277;SDS011;2662;51.194;6.614;2022-09-30T11:33:32;16.07;;;7.13;;
5277;SDS011;2662;51.194;6.614;2022-09-30T11:36:10;10.47;;;6.30;;
5277;SDS011;2662;51.194;6.614;2022-09-30T11:41:38;25.60;;;6.70;;
5277;SDS011;2662;51.194;6.614;2022-09-30T11:44:13;7.40;;;5.20;;
5277;SDS011;2662;51.194;6.614;2022-09-30T11:47:00;8.90;;;5.60;;
5277;SDS011;2662;51.194;6.614;2022-09-30T11:49:55;8.37;;;5.67;;
5277;SDS011;2662;51.194;6.614;2022-09-30T11:52:31;9.47;;;5.80;;
5277;SDS011;2662;51.194;6.614;2022-09-30T11:55:10;7.60;;;5.73;;
5277;SDS011;2662;51.194;6.614;2022-09-30T11:57:48;6.20;;;5.30;;
5277;SDS011;2662;51.194;6.614;2022-09-30T12:00:21;8.30;;;5.90;;
5277;SDS011;2662;51.194;6.614;2022-09-30T12:02:49;7.50;;;5.20;;
5277;SDS011;2662;51.194;6.614;2022-09-30T12:05:19;7.40;;;5.60;;
5277;SDS011;2662;51.194;6.614;2022-09-30T12:07:51;7.47;;;5.17;;
5277;SDS011;2662;51.194;6.614;2022-09-30T12:10:24;7.73;;;5.03;;
5277;SDS011;2662;51.194;6.614;2022-09-30T12:12:57;7.13;;;5.20;;
5277;SDS011;2662;51.194;6.614;2022-09-30T12:15:26;6.80;;;4.77;;
5277;SDS011;2662;51.194;6.614;2022-09-30T12:17:56;6.40;;;5.17;;
5277;SDS011;2662;51.194;6.614;2022-09-30T12:20:28;7.90;;;5.10;;
5277;SDS011;2662;51.194;6.614;2022-09-30T12:22:59;9.00;;;5.40;;
5277;SDS011;2662;51.194;6.614;2022-09-30T12:25:33;5.20;;;4.40;;
5277;SDS011;2662;51.194;6.614;2022-09-30T12:28:06;10.53;;;4.27;;
5277;SDS011;2662;51.194;6.614;2022-09-30T12:30:59;11.00;;;4.13;;
5277;SDS011;2662;51.194;6.614;2022-09-30T12:33:44;6.17;;;4.90;;
5277;SDS011;2662;51.194;6.614;2022-09-30T12:36:37;5.87;;;5.07;;
5277;SDS011;2662;51.194;6.614;2022-09-30T12:39:27;7.23;;;5.33;;
5277;SDS011;2662;51.194;6.614;2022-09-30T12:42:19;7.80;;;4.30;;
5277;SDS011;2662;51.194;6.614;2022-09-30T12:45:12;5.40;;;4.63;;
5277;SDS011;2662;51.194;6.614;2022-09-30T12:47:54;9.17;;;5.93;;
5277;SDS011;2662;51.194;6.614;2022-09-30T12:50:25;7.63;;;5.27;;
5277;SDS011;2662;51.194;6.614;2022-09-30T12:52:56;13.60;;;6.60;;
5277;SDS011;2662;51.194;6.614;2022-09-30T12:55:24;8.20;;;5.73;;
5277;SDS011;2662;51.194;6.614;2022-09-30T12:57:55;9.20;;;5.97;;
5277;SDS011;2662;51.194;6.614;2022-09-30T13:00:25;19.53;;;5.80;;
5277;SDS011;2662;51.194;6.614;2022-09-30T13:02:55;7.10;;;5.60;;
5277;SDS011;2662;51.194;6.614;2022-09-30T13:05:41;6.47;;;4.97;;
5277;SDS011;2662;51.194;6.614;2022-09-30T13:08:31;6.77;;;5.10;;
5277;SDS011;2662;51.194;6.614;2022-09-30T13:11:18;5.60;;;4.40;;
5277;SDS011;2662;51.194;6.614;2022-09-30T13:13:56;6.87;;;5.50;;
5277;SDS011;2662;51.194;6.614;2022-09-30T13:19:34;11.70;;;5.20;;
5277;SDS011;2662;51.194;6.614;2022-09-30T13:25:19;6.73;;;5.60;;
5277;SDS011;2662;51.194;6.614;2022-09-30T13:27:46;7.50;;;5.30;;
5277;SDS011;2662;51.194;6.614;2022-09-30T13:30:36;8.50;;;5.90;;
5277;SDS011;2662;51.194;6.614;2022-09-30T13:35:57;7.53;;;4.63;;
5277;SDS011;2662;51.194;6.614;2022-09-30T13:38:33;6.17;;;4.60;;
5277;SDS011;2662;51.194;6.614;2022-09-30T13:41:05;5.40;;;4.90;;
5277;SDS011;2662;51.194;6.614;2022-09-30T13:43:41;8.73;;;5.07;;
5277;SDS011;2662;51.194;6.614;2022-09-30T13:46:11;4.63;;;4.10;;
5277;SDS011;2662;51.194;6.614;2022-09-30T13:48:48;6.50;;;4.80;;
5277;SDS011;2662;51.194;6.614;2022-09-30T13:51:20;12.00;;;4.87;;
5277;SDS011;2662;51.194;6.614;2022-09-30T13:53:50;5.00;;;4.17;;
5277;SDS011;2662;51.194;6.614;2022-09-30T13:56:21;10.33;;;4.07;;
5277;SDS011;2662;51.194;6.614;2022-09-30T13:58:58;22.27;;;4.20;;
5277;SDS011;2662;51.194;6.614;2022-09-30T14:02:00;4.10;;;3.70;;
5277;SDS011;2662;51.194;6.614;2022-09-30T14:04:49;5.57;;;4.50;;
5277;SDS011;2662;51.194;6.614;2022-09-30T14:07:32;8.13;;;5.10;;
5277;SDS011;2662;51.194;6.614;2022-09-30T14:10:12;4.90;;;4.40;;
5277;SDS011;2662;51.194;6.614;2022-09-30T14:13:00;4.83;;;4.20;;
5277;SDS011;2662;51.194;6.614;2022-09-30T14:18:47;5.30;;;4.10;;
5277;SDS011;2662;51.194;6.614;2022-09-30T14:21:32;5.20;;;3.80;;
5277;SDS011;2662;51.194;6.614;2022-09-30T14:24:02;5.00;;;4.50;;
5277;SDS011;2662;51.194;6.614;2022-09-30T14:26:39;4.20;;;3.50;;
5277;SDS011;2662;51.194;6.614;2022-09-30T14:29:29;4.70;;;3.60;;
5277;SDS011;2662;51.194;6.614;2022-09-30T14:32:09;5.87;;;3.67;;
5277;SDS011;2662;51.194;6.614;2022-09-30T14:34:36;3.27;;;2.97;;
5277;SDS011;2662;51.194;6.614;2022-09-30T14:37:04;4.50;;;3.50;;
5277;SDS011;2662;51.194;6.614;2022-09-30T14:39:31;3.33;;;3.03;;
5277;SDS011;2662;51.194;6.614;2022-09-30T14:41:59;2.63;;;2.47;;
5277;SDS011;2662;51.194;6.614;2022-09-30T14:44:28;3.43;;;3.13;;
5277;SDS011;2662;51.194;6.614;2022-09-30T14:47:00;4.33;;;2.40;;
5277;SDS011;2662;51.194;6.614;2022-09-30T14:49:29;4.23;;;2.40;;
5277;SDS011;2662;51.194;6.614;2022-09-30T14:51:58;2.93;;;2.30;;
5277;SDS011;2662;51.194;6.614;2022-09-30T14:54:27;4.57;;;2.47;;
5277;SDS011;2662;51.194;6.614;2022-09-30T14:56:55;4.07;;;2.60;;
5277;SDS011;2662;51.194;6.614;2022-09-30T14:59:23;2.40;;;2.27;;
5277;SDS011;2662;51.194;6.614;2022-09-30T15:01:54;1.87;;;1.77;;
5277;SDS011;2662;51.194;6.614;2022-09-30T15:04:25;3.27;;;2.10;;
5277;SDS011;2662;51.194;6.614;2022-09-30T15:06:55;1.73;;;1.53;;
5277;SDS011;2662;51.194;6.614;2022-09-30T15:09:25;1.60;;;1.50;;
5277;SDS011;2662;51.194;6.614;2022-09-30T15:11:55;1.50;;;1.40;;
5277;SDS011;2662;51.194;6.614;2022-09-30T15:14:23;3.23;;;1.73;;
5277;SDS011;2662;51.194;6.614;2022-09-30T15:16:51;5.43;;;1.70;;
5277;SDS011;2662;51.194;6.614;2022-09-30T15:19:21;3.23;;;1.93;;
5277;SDS011;2662;51.194;6.614;2022-09-30T15:21:50;4.70;;;1.50;;
5277;SDS011;2662;51.194;6.614;2022-09-30T15:24:19;3.77;;;1.90;;
5277;SDS011;2662;51.194;6.614;2022-09-30T15:26:48;1.83;;;1.73;;
5277;SDS011;2662;51.194;6.614;2022-09-30T15:29:16;1.77;;;1.67;;
5277;SDS011;2662;51.194;6.614;2022-09-30T15:31:43;3.60;;;1.93;;
5277;SDS011;2662;51.194;6.614;2022-09-30T15:34:13;1.80;;;1.53;;
5277;SDS011;2662;51.194;6.614;2022-09-30T15:36:43;1.83;;;1.73;;
5277;SDS011;2662;51.194;6.614;2022-09-30T15:39:16;4.03;;;1.60;;
5277;SDS011;2662;51.194;6.614;2022-09-30T15:41:46;5.70;;;1.87;;
5277;SDS011;2662;51.194;6.614;2022-09-30T15:44:15;1.73;;;1.63;;
5277;SDS011;2662;51.194;6.614;2022-09-30T15:46:58;1.40;;;1.30;;
5277;SDS011;2662;51.194;6.614;2022-09-30T15:49:30;3.80;;;1.30;;
5277;SDS011;2662;51.194;6.614;2022-09-30T15:52:22;2.50;;;1.70;;
5277;SDS011;2662;51.194;6.614;2022-09-30T15:54:53;3.90;;;1.87;;
5277;SDS011;2662;51.194;6.614;2022-09-30T15:57:37;2.33;;;1.37;;
5277;SDS011;2662;51.194;6.614;2022-09-30T16:03:05;2.47;;;1.60;;